Terminal Aerodrome Forecast
Issued by NWS

Home | Current Version | Previous Version | Text Only | Print | Product List | Glossary Off
Versions: 1 2 3 4 5 6 7 8 9 10 11 12 13 14 15 16 17 18 19 20 21 22 23 24 25

000
FTUS42 KMHX 052340
TAFOAJ
TAF
KOAJ 052340Z 0600/0624 34006KT P6SM VCSH BKN025
      TEMPO 0600/0602 SCT025 BKN060
     FM060500 VRB03KT P6SM VCSH BKN008
     FM061200 27006KT P6SM VCSH OVC015
     FM061500 29007KT P6SM OVC025
     FM061800 29007KT P6SM VCSH BKN040
      AMD LTD TO CLD VIS AND WIND=

USA.gov is the U.S. government's official web portal to all federal, state and local government web resources and services.